Time;durP1;ratioP1;P1;durP2;ratioP2;P2;SDS_P1;SDS_P2;PMS_P1;PMS_P2;Temp;Humidity;BMP_temperature;BMP_pressure;BME280_temperature;BME280_humidity;BME280_pressure;Samples;Min_cycle;Max_cycle;Signal;HPM_P1;HPM_P2
2022/11/01 00:00:14;;;;;;;;;;;;;;;1.52;69.08;100135.33;1695124;84;20924;-82
2022/11/01 00:02:41;;;;;;;;;;;;;;;1.48;69.26;100135.28;1694970;84;21166;-83
2022/11/01 00:05:08;;;;;;;;;;;;;;;1.46;69.38;100139.59;1694933;83;20263;-81
2022/11/01 00:07:35;;;;;;;;;;;;;;;1.44;69.49;100136.08;1694990;84;20214;-83
2022/11/01 00:10:02;;;;;;;;;;;;;;;1.41;69.52;100138.66;1695055;84;20400;-84
2022/11/01 00:12:30;;;;;;;;;;;;;;;1.40;69.69;100136.91;1694895;84;20214;-83
2022/11/01 00:14:56;;;;;;;;;;;;;;;1.36;69.72;100136.44;1695077;84;21139;-85
2022/11/01 00:17:22;;;;;;;;;;;;;;;1.34;70.02;100135.95;1695104;84;22014;-85
2022/11/01 00:19:51;;;;;;;;;;;;;;;1.27;70.27;100129.83;1695069;84;20205;-83
2022/11/01 00:22:17;;;;;;;;;;;;;;;1.23;70.36;100133.23;1694885;84;20429;-85
2022/11/01 00:24:44;;;;;;;;;;;;;;;1.21;70.53;100125.84;1694884;84;20209;-84
2022/11/01 00:27:10;;;;;;;;;;;;;;;1.20;70.69;100131.90;1694831;84;20730;-85
2022/11/01 00:29:36;;;;;;;;;;;;;;;1.19;70.81;100128.84;1694729;84;20174;-85
2022/11/01 00:32:03;;;;;;;;;;;;;;;1.18;70.97;100128.39;1694789;84;20226;-82
2022/11/01 00:34:29;;;;;;;;;;;;;;;1.16;71.17;100126.20;1694906;84;20517;-85
2022/11/01 00:36:56;;;;;;;;;;;;;;;1.13;71.29;100121.87;1695120;84;20179;-85
2022/11/01 00:39:23;;;;;;;;;;;;;;;1.13;71.34;100130.05;1694953;84;21130;-84
2022/11/01 00:41:49;;;;;;;;;;;;;;;1.09;71.34;100131.33;1694857;84;20207;-82
2022/11/01 00:44:15;;;;;;;;;;;;;;;1.10;71.50;100132.20;1695186;84;20218;-84
2022/11/01 00:46:43;;;;;;;;;;;;;;;1.09;71.68;100133.92;1696423;84;20202;-85
2022/11/01 00:49:10;;;;;;;;;;;;;;;1.09;71.67;100137.81;1696627;84;20175;-83
2022/11/01 00:51:36;;;;;;;;;;;;;;;1.10;71.63;100139.97;1696610;84;21827;-83
2022/11/01 00:54:19;;;;;;;;;;;;;;;1.09;71.82;100137.81;1696599;84;20135;-84
2022/11/01 00:56:45;;;;;;;;;;;;;;;1.10;71.82;100138.23;1696987;84;20221;-82
2022/11/01 00:59:11;;;;;;;;;;;;;;;1.09;72.01;100141.70;1696672;84;20234;-84
2022/11/01 01:01:37;;;;;;;;;;;;;;;1.06;72.00;100145.94;1696741;84;20334;-85
2022/11/01 01:04:04;;;;;;;;;;;;;;;1.05;72.32;100138.60;1696680;84;22265;-85
2022/11/01 01:06:30;;;;;;;;;;;;;;;1.03;72.46;100142.90;1696857;84;20202;-86
2022/11/01 01:08:59;;;;;;;;;;;;;;;1.02;72.54;100141.14;1696841;84;20202;-84
2022/11/01 01:11:26;;;;;;;;;;;;;;;1.03;72.68;100127.78;1696972;84;20205;-85
2022/11/01 01:13:54;;;;;;;;;;;;;;;1.01;72.90;100132.95;1696650;84;20206;-83
2022/11/01 01:16:20;;;;;;;;;;;;;;;1.02;73.03;100129.91;1696536;84;21134;-85
2022/11/01 01:18:46;;;;;;;;;;;;;;;1.02;73.11;100130.78;1696853;84;20156;-84
2022/11/01 01:21:15;;;;;;;;;;;;;;;1.01;73.23;100127.76;1696752;84;20214;-85
2022/11/01 01:23:42;;;;;;;;;;;;;;;1.01;73.35;100126.47;1696771;84;20170;-85
2022/11/01 01:26:10;;;;;;;;;;;;;;;1.02;73.43;100126.89;1696678;84;20205;-85
2022/11/01 01:28:36;;;;;;;;;;;;;;;1.00;73.38;100123.41;1696827;84;21131;-86
2022/11/01 01:31:06;;;;;;;;;;;;;;;1.00;73.43;100129.89;1696615;84;20202;-85
2022/11/01 01:33:33;;;;;;;;;;;;;;;0.99;73.44;100128.58;1696504;84;20233;-85
2022/11/01 01:36:01;;;;;;;;;;;;;;;0.99;73.46;100126.84;1696564;84;20555;-85
2022/11/01 01:38:27;;;;;;;;;;;;;;;0.97;73.58;100135.02;1696914;84;20973;-86
2022/11/01 01:40:53;;;;;;;;;;;;;;;0.95;73.61;100131.55;1696611;84;21143;-85
2022/11/01 01:43:20;;;;;;;;;;;;;;;0.95;73.72;100135.44;1696757;84;20198;-80
2022/11/01 01:45:46;;;;;;;;;;;;;;;0.93;73.80;100131.96;1696507;84;20230;-85
2022/11/01 01:48:18;;;;;;;;;;;;;;;0.91;73.97;100126.75;1696642;84;20584;-85
2022/11/01 01:50:58;;;;;;;;;;;;;;;0.91;74.15;100125.89;1696968;84;20167;-84
2022/11/01 01:53:30;;;;;;;;;;;;;;;0.86;74.25;100123.23;1696594;84;21134;-85
2022/11/01 01:55:59;;;;;;;;;;;;;;;0.86;74.75;100128.41;1696839;84;20212;-84
2022/11/01 01:58:38;;;;;;;;;;;;;;;0.82;75.21;100130.92;1696569;84;20175;-85
2022/11/01 02:01:04;;;;;;;;;;;;;;;0.77;75.74;100137.75;1696917;84;20201;-85
2022/11/01 02:03:32;;;;;;;;;;;;;;;0.70;76.18;100135.06;1696577;84;20175;-85
2022/11/01 02:06:07;;;;;;;;;;;;;;;0.64;76.45;100134.98;1696859;84;21136;-85
2022/11/01 02:08:34;;;;;;;;;;;;;;;0.61;76.70;100136.66;1690442;84;20249;-84
2022/11/01 02:11:03;;;;;;;;;;;;;;;0.57;77.06;100139.60;1696717;84;20234;-85
2022/11/01 02:13:31;;;;;;;;;;;;;;;0.55;77.11;100141.30;1696654;84;20248;-86
2022/11/01 02:16:18;;;;;;;;;;;;;;;0.53;77.09;100144.30;1696641;84;20202;-84
2022/11/01 02:18:58;;;;;;;;;;;;;;;0.54;77.05;100146.91;1696583;84;21165;-86
2022/11/01 02:21:36;;;;;;;;;;;;;;;0.58;77.11;100152.14;1696844;84;20250;-83
2022/11/01 02:24:12;;;;;;;;;;;;;;;0.58;77.05;100146.53;1696357;84;20182;-83
2022/11/01 02:26:48;;;;;;;;;;;;;;;0.62;76.93;100148.74;1696389;84;20214;-85
2022/11/01 02:29:50;;;;;;;;;;;;;;;0.64;76.82;100142.76;1696344;84;20218;-85
2022/11/01 02:32:23;;;;;;;;;;;;;;;0.65;76.78;100143.19;1696752;84;21694;-83
2022/11/01 02:34:56;;;;;;;;;;;;;;;0.65;76.80;100148.36;1696621;84;20449;-86
2022/11/01 02:37:35;;;;;;;;;;;;;;;0.66;76.81;100150.55;1696615;84;20237;-79
2022/11/01 02:40:07;;;;;;;;;;;;;;;0.67;76.58;100155.77;1696523;84;20586;-85
2022/11/01 02:42:36;;;;;;;;;;;;;;;0.68;76.44;100152.30;1696868;84;20312;-84
2022/11/01 02:45:26;;;;;;;;;;;;;;;0.69;76.47;100151.47;1696582;84;21916;-84
2022/11/01 02:47:40;;;;;;;;;;;;;;;0.68;76.55;100149.72;1693409;84;20557;-85
2022/11/01 02:50:08;;;;;;;;;;;;;;;0.68;76.62;100156.63;1696683;84;20222;-85
2022/11/01 02:52:37;;;;;;;;;;;;;;;0.65;76.60;100157.42;1665509;84;20681;-85
2022/11/01 02:55:06;;;;;;;;;;;;;;;0.61;76.80;100157.38;1696601;84;20202;-85
2022/11/01 02:57:38;;;;;;;;;;;;;;;0.58;76.98;100165.09;1695984;84;21182;-83
2022/11/01 03:00:23;;;;;;;;;;;;;;;0.57;77.10;100170.67;1697873;84;20135;-85
2022/11/01 03:02:53;;;;;;;;;;;;;;;0.53;77.46;100170.19;1701408;82;20195;-78
2022/11/01 03:05:26;;;;;;;;;;;;;;;0.50;77.89;100173.58;1700917;82;20147;-77
2022/11/01 03:07:58;;;;;;;;;;;;;;;0.44;78.20;100162.25;1699277;82;20904;-85
2022/11/01 03:10:30;;;;;;;;;;;;;;;0.40;78.76;100166.94;1696651;84;20968;-85
2022/11/01 03:13:06;;;;;;;;;;;;;;;0.34;79.05;100167.29;1696059;84;20528;-82
2022/11/01 03:15:38;;;;;;;;;;;;;;;0.31;79.20;100167.23;1676381;84;20152;-82
2022/11/01 03:18:04;;;;;;;;;;;;;;;0.30;79.41;100166.80;1664864;84;20226;-85
2022/11/01 03:20:47;;;;;;;;;;;;;;;0.27;79.95;100169.73;1696832;84;20148;-83
2022/11/01 03:23:19;;;;;;;;;;;;;;;0.24;80.38;100174.45;1696824;84;21203;-84
2022/11/01 03:25:49;;;;;;;;;;;;;;;0.20;80.56;100167.45;1696683;84;20562;-84
2022/11/01 03:28:22;;;;;;;;;;;;;;;0.19;80.80;100163.14;1696559;84;20936;-84
2022/11/01 03:31:05;;;;;;;;;;;;;;;0.18;80.99;100164.88;1696706;84;20202;-84
2022/11/01 03:33:32;;;;;;;;;;;;;;;0.17;81.18;100159.66;1686825;84;20220;-84
2022/11/01 03:36:02;;;;;;;;;;;;;;;0.17;81.41;100164.84;1697069;84;21150;-84
2022/11/01 03:38:44;;;;;;;;;;;;;;;0.17;81.38;100155.78;1696669;84;20313;-83
2022/11/01 03:41:13;;;;;;;;;;;;;;;0.17;81.34;100158.38;1694262;84;20174;-81
2022/11/01 03:43:39;;;;;;;;;;;;;;;0.16;81.33;100154.89;1696697;84;20147;-84
2022/11/01 03:46:06;;;;;;;;;;;;;;;0.17;81.53;100154.06;1696821;84;20171;-84
2022/11/01 03:48:33;;;;;;;;;;;;;;;0.17;81.70;100146.72;1696883;84;21097;-85
2022/11/01 03:51:00;;;;;;;;;;;;;;;0.15;81.85;100152.27;1696932;84;20151;-84
2022/11/01 03:53:26;;;;;;;;;;;;;;;0.11;82.00;100150.05;1697001;84;20201;-83
2022/11/01 03:55:53;;;;;;;;;;;;;;;0.10;82.07;100160.38;1696978;84;20962;-82
2022/11/01 03:58:19;;;;;;;;;;;;;;;0.08;82.42;100159.48;1696899;84;20144;-84
2022/11/01 04:00:47;;;;;;;;;;;;;;;0.04;82.87;100161.58;1697040;84;20606;-82
2022/11/01 04:03:13;;;;;;;;;;;;;;;0.01;83.29;100163.67;1697349;84;20223;-83
2022/11/01 04:05:40;;;;;;;;;;;;;;;-0.03;83.58;100164.04;1696966;84;20308;-84
2022/11/01 04:08:09;;;;;;;;;;;;;;;-0.05;83.62;100161.86;1696907;84;20242;-83
2022/11/01 04:10:35;;;;;;;;;;;;;;;-0.05;83.78;100164.84;1696920;84;20281;-83
2022/11/01 04:13:01;;;;;;;;;;;;;;;-0.08;84.11;100161.79;1697226;84;21062;-82
2022/11/01 04:21:06;;;;;;;;;;;;;;;-0.09;84.68;100163.91;1696971;84;20230;-82
2022/11/01 04:23:34;;;;;;;;;;;;;;;-0.09;84.64;100162.63;1696856;84;20194;-86
2022/11/01 04:26:01;;;;;;;;;;;;;;;-0.09;84.66;100165.20;1697138;84;21121;-85
2022/11/01 04:28:28;;;;;;;;;;;;;;;-0.09;84.59;100173.40;1696886;84;20448;-85
2022/11/01 04:30:54;;;;;;;;;;;;;;;-0.08;84.69;100176.02;1697222;84;20147;-83
2022/11/01 04:33:20;;;;;;;;;;;;;;;-0.09;84.89;100170.38;1696986;84;20174;-85
2022/11/01 04:35:47;;;;;;;;;;;;;;;-0.10;85.12;100175.13;1696913;84;20176;-85
2022/11/01 04:38:13;;;;;;;;;;;;;;;-0.12;85.20;100175.48;1696789;84;21133;-85
2022/11/01 04:40:40;;;;;;;;;;;;;;;-0.13;85.35;100179.37;1696743;84;20225;-86
2022/11/01 04:43:07;;;;;;;;;;;;;;;-0.14;85.42;100175.89;1696888;84;20214;-85
2022/11/01 04:45:34;;;;;;;;;;;;;;;-0.14;85.60;100178.48;1696782;84;20170;-82
2022/11/01 04:48:11;;;;;;;;;;;;;;;-0.13;85.72;100177.64;1696640;84;20143;-85
2022/11/01 04:50:36;;;;;;;;;;;;;;;-0.14;85.91;100177.61;1696674;84;21238;-84
2022/11/01 04:53:03;;;;;;;;;;;;;;;-0.16;86.13;100185.34;1697009;84;20144;-85
2022/11/01 04:55:30;;;;;;;;;;;;;;;-0.15;86.33;100187.09;1696701;84;20190;-84
2022/11/01 04:57:56;;;;;;;;;;;;;;;-0.17;86.54;100182.72;1696897;84;20630;-83
2022/11/01 05:00:22;;;;;;;;;;;;;;;-0.19;86.57;100181.39;1696644;84;20501;-82
2022/11/01 05:02:49;;;;;;;;;;;;;;;-0.19;86.81;100185.27;1696729;84;21178;-85
2022/11/01 05:05:15;;;;;;;;;;;;;;;-0.19;86.79;100185.27;1696803;84;20194;-84
2022/11/01 05:07:42;;;;;;;;;;;;;;;-0.19;86.78;100184.84;1696564;84;20467;-84
2022/11/01 05:10:09;;;;;;;;;;;;;;;-0.19;87.09;100182.69;1696670;84;21019;-81
2022/11/01 05:12:37;;;;;;;;;;;;;;;-0.21;87.13;100185.24;1696491;84;20517;-84
2022/11/01 05:15:05;;;;;;;;;;;;;;;-0.22;87.20;100183.52;1696754;84;20803;-84
2022/11/01 05:17:31;;;;;;;;;;;;;;;-0.22;87.40;100180.93;1696583;84;20234;-78
2022/11/01 05:19:59;;;;;;;;;;;;;;;-0.23;87.53;100188.22;1696600;84;20210;-85
2022/11/01 05:22:27;;;;;;;;;;;;;;;-0.22;87.71;100191.67;1696786;84;20151;-83
2022/11/01 05:24:54;;;;;;;;;;;;;;;-0.24;88.03;100195.52;1696704;84;20206;-84
2022/11/01 05:27:20;;;;;;;;;;;;;;;-0.23;88.32;100193.83;1697027;84;21126;-85
2022/11/01 05:29:47;;;;;;;;;;;;;;;-0.21;88.58;100193.44;1696575;84;20622;-84
2022/11/01 05:32:13;;;;;;;;;;;;;;;-0.19;88.82;100191.73;1696955;84;20505;-85
2022/11/01 05:34:40;;;;;;;;;;;;;;;-0.14;89.07;100193.13;1696558;84;21088;-85
2022/11/01 05:37:07;;;;;;;;;;;;;;;-0.09;89.43;100194.09;1696643;84;20710;-83
2022/11/01 05:39:34;;;;;;;;;;;;;;;-0.03;89.59;100192.93;1696639;84;21611;-82
2022/11/01 05:42:00;;;;;;;;;;;;;;;0.04;89.78;100191.33;1696528;84;20210;-85
2022/11/01 05:44:26;;;;;;;;;;;;;;;0.12;89.84;100193.64;1696880;84;20906;-87
2022/11/01 05:46:53;;;;;;;;;;;;;;;0.19;89.75;100195.49;1693520;84;20591;-85
2022/11/01 05:49:21;;;;;;;;;;;;;;;0.25;89.72;100190.41;1686430;85;20226;-84
2022/11/01 05:51:47;;;;;;;;;;;;;;;0.33;89.65;100191.42;1686397;85;21191;-85
2022/11/01 05:54:14;;;;;;;;;;;;;;;0.40;89.57;100188.95;1686504;84;20213;-84
2022/11/01 05:56:40;;;;;;;;;;;;;;;0.47;89.51;100193.37;1686275;84;20210;-86
2022/11/01 05:59:07;;;;;;;;;;;;;;;0.54;89.43;100193.52;1686254;85;20209;-85
2022/11/01 06:01:33;;;;;;;;;;;;;;;0.62;89.38;100196.22;1686597;85;20218;-85
2022/11/01 06:04:00;;;;;;;;;;;;;;;0.68;89.09;100191.16;1686349;85;20777;-86
2022/11/01 06:06:28;;;;;;;;;;;;;;;0.74;89.11;100193.85;1686384;84;20218;-84
2022/11/01 06:08:56;;;;;;;;;;;;;;;0.84;88.96;100199.16;1686328;85;20223;-85
2022/11/01 06:11:24;;;;;;;;;;;;;;;0.95;88.75;100196.76;1686418;85;20191;-85
2022/11/01 06:13:56;;;;;;;;;;;;;;;1.03;88.60;100202.94;1686479;85;20210;-85
2022/11/01 06:16:24;;;;;;;;;;;;;;;1.11;88.25;100200.89;1685601;85;21569;-85
2022/11/01 06:18:50;;;;;;;;;;;;;;;1.18;87.71;100201.86;1686173;84;20998;-85
2022/11/01 06:21:20;;;;;;;;;;;;;;;1.25;87.32;100204.12;1686401;85;20246;-84
2022/11/01 06:23:49;;;;;;;;;;;;;;;1.34;86.97;100199.04;1686308;84;20524;-85
2022/11/01 06:26:17;;;;;;;;;;;;;;;1.40;87.09;100198.27;1686604;85;20524;-85
2022/11/01 06:28:45;;;;;;;;;;;;;;;1.47;86.85;100190.58;1686442;85;21170;-85
2022/11/01 06:31:11;;;;;;;;;;;;;;;1.56;86.55;100201.92;1686377;85;20277;-84
2022/11/01 06:33:38;;;;;;;;;;;;;;;1.65;86.16;100192.55;1686358;84;20215;-86
2022/11/01 06:36:05;;;;;;;;;;;;;;;1.74;85.69;100198.70;1686455;85;20667;-86
2022/11/01 06:38:32;;;;;;;;;;;;;;;1.79;85.40;100195.30;1686347;85;20221;-86
2022/11/01 06:40:58;;;;;;;;;;;;;;;1.86;85.34;100187.16;1686477;85;21155;-85
2022/11/01 06:43:25;;;;;;;;;;;;;;;1.93;85.21;100188.97;1686325;85;20202;-85
2022/11/01 06:46:09;;;;;;;;;;;;;;;2.03;84.84;100195.14;1686673;84;20384;-84
2022/11/01 06:48:35;;;;;;;;;;;;;;;2.16;84.52;100202.20;1695339;84;20221;-85
2022/11/01 06:51:03;;;;;;;;;;;;;;;2.25;83.97;100194.93;1696602;84;20156;-86
2022/11/01 06:53:29;;;;;;;;;;;;;;;2.31;83.42;100198.90;1696450;84;21295;-84
2022/11/01 06:55:59;;;;;;;;;;;;;;;2.37;83.56;100198.08;1696726;84;20432;-82
2022/11/01 06:58:27;;;;;;;;;;;;;;;2.43;82.87;100205.08;1696709;84;20540;-86
2022/11/01 07:00:54;;;;;;;;;;;;;;;2.50;82.62;100202.97;1696804;84;20195;-86
2022/11/01 07:03:21;;;;;;;;;;;;;;;2.58;82.33;100202.17;1696853;84;20246;-85
2022/11/01 07:05:48;;;;;;;;;;;;;;;2.66;81.78;100196.20;1696697;84;21525;-84
2022/11/01 07:08:16;;;;;;;;;;;;;;;2.74;81.62;100202.30;1696583;84;20234;-86
2022/11/01 07:10:43;;;;;;;;;;;;;;;2.81;81.35;100198.02;1696718;84;20241;-85
2022/11/01 07:13:10;;;;;;;;;;;;;;;2.90;81.16;100192.47;1696791;84;20189;-86
2022/11/01 07:15:37;;;;;;;;;;;;;;;3.02;80.51;100195.59;1696836;84;20142;-84
2022/11/01 07:18:04;;;;;;;;;;;;;;;3.14;80.26;100197.41;1696841;84;21182;-85
2022/11/01 07:20:40;;;;;;;;;;;;;;;3.23;79.42;100192.28;1696657;84;20145;-84
2022/11/01 07:23:04;;;;;;;;;;;;;;;3.31;79.16;100193.20;1696413;84;20225;-86
2022/11/01 07:25:31;;;;;;;;;;;;;;;3.43;79.19;100188.90;1697001;84;20605;-86
2022/11/01 07:27:58;;;;;;;;;;;;;;;3.54;78.69;100184.62;1696722;84;20230;-86
2022/11/01 07:30:25;;;;;;;;;;;;;;;3.63;77.90;100180.78;1696709;84;21190;-85
2022/11/01 07:32:58;;;;;;;;;;;;;;;3.76;78.02;100179.52;1696734;84;20193;-85
2022/11/01 07:35:24;;;;;;;;;;;;;;;3.93;77.43;100187.39;1696650;84;20146;-87
2022/11/01 07:37:51;;;;;;;;;;;;;;;4.07;76.30;100189.17;1696773;84;20217;-87
2022/11/01 07:40:18;;;;;;;;;;;;;;;4.23;76.45;100189.20;1696560;84;20218;-87
2022/11/01 07:42:44;;;;;;;;;;;;;;;4.38;75.26;100185.31;1696948;84;20763;-88
2022/11/01 07:45:12;;;;;;;;;;;;;;;4.54;75.50;100187.93;1696636;84;20262;-87
2022/11/01 07:47:39;;;;;;;;;;;;;;;4.72;74.33;100187.94;1696898;84;20198;-87
2022/11/01 07:50:07;;;;;;;;;;;;;;;4.83;73.33;100191.42;1696803;84;20199;-87
2022/11/01 07:52:33;;;;;;;;;;;;;;;4.91;72.23;100190.13;1697022;84;20210;-87
2022/11/01 07:55:00;;;;;;;;;;;;;;;4.98;72.16;100190.99;1697083;84;21126;-87
2022/11/01 07:57:27;;;;;;;;;;;;;;;5.06;71.57;100183.14;1696923;84;20234;-87
2022/11/01 07:59:53;;;;;;;;;;;;;;;5.12;71.38;100182.70;1697157;84;20209;-86
2022/11/01 08:02:19;;;;;;;;;;;;;;;5.19;70.39;100180.53;1697056;84;20442;-85
2022/11/01 08:04:46;;;;;;;;;;;;;;;5.25;70.34;100169.65;1697361;84;20178;-87
2022/11/01 08:07:12;;;;;;;;;;;;;;;5.34;70.35;100176.13;1696968;84;21166;-84
2022/11/01 08:09:39;;;;;;;;;;;;;;;5.43;70.60;100168.30;1696929;84;20230;-86
2022/11/01 08:12:05;;;;;;;;;;;;;;;5.55;69.91;100171.30;1697183;84;20238;-86
2022/11/01 08:14:32;;;;;;;;;;;;;;;5.68;69.68;100169.08;1697012;84;20190;-85
2022/11/01 08:17:00;;;;;;;;;;;;;;;5.80;68.86;100167.27;1697206;84;20191;-86
2022/11/01 08:19:27;;;;;;;;;;;;;;;5.92;68.71;100170.69;1697110;84;21147;-86
2022/11/01 08:21:58;;;;;;;;;;;;;;;6.04;66.80;100165.87;1697950;81;20139;-79
2022/11/01 08:24:25;;;;;;;;;;;;;;;6.09;66.58;100165.85;1700817;80;20108;-79
2022/11/01 08:26:52;;;;;;;;;;;;;;;6.14;66.72;100162.77;1701918;80;20163;-80
2022/11/01 08:29:19;;;;;;;;;;;;;;;6.25;67.07;100162.69;1699492;83;20159;-87
2022/11/01 08:31:46;;;;;;;;;;;;;;;6.45;66.38;100158.63;1697148;84;21150;-86
2022/11/01 08:34:13;;;;;;;;;;;;;;;6.70;65.35;100159.30;1696911;84;20159;-87
2022/11/01 08:36:39;;;;;;;;;;;;;;;6.92;64.16;100158.67;1697179;84;20289;-87
2022/11/01 08:39:06;;;;;;;;;;;;;;;7.11;63.40;100149.33;1697398;84;20206;-86
2022/11/01 08:41:32;;;;;;;;;;;;;;;7.27;62.03;100149.60;1697224;84;20160;-86
2022/11/01 08:43:58;;;;;;;;;;;;;;;7.40;60.96;100147.27;1697013;83;21150;-85
2022/11/01 08:46:25;;;;;;;;;;;;;;;7.53;60.83;100148.43;1696972;83;20269;-87
2022/11/01 08:48:55;;;;;;;;;;;;;;;7.67;60.81;100141.73;1689385;84;20210;-85
2022/11/01 08:51:24;;;;;;;;;;;;;;;7.81;59.98;100148.50;1686416;85;20608;-87
2022/11/01 08:53:48;;;;;;;;;;;;;;;7.89;58.31;100143.17;1686155;85;20250;-85
2022/11/01 08:56:15;;;;;;;;;;;;;;;7.93;58.17;100146.61;1686495;85;21166;-87
2022/11/01 08:58:42;;;;;;;;;;;;;;;8.00;58.74;100145.63;1686592;85;20567;-86
2022/11/01 09:01:10;;;;;;;;;;;;;;;8.07;57.93;100143.38;1686664;85;20214;-85
2022/11/01 09:03:37;;;;;;;;;;;;;;;8.13;57.44;100139.33;1663367;85;20401;-85
2022/11/01 09:06:03;;;;;;;;;;;;;;;8.18;57.49;100136.19;1686493;85;20937;-85
2022/11/01 09:08:31;;;;;;;;;;;;;;;8.30;57.72;100142.16;1686427;85;20207;-88
2022/11/01 09:10:58;;;;;;;;;;;;;;;8.42;55.93;100144.57;1686474;85;20198;-87
2022/11/01 09:13:26;;;;;;;;;;;;;;;8.43;56.09;100135.86;1686300;84;20201;-84
2022/11/01 09:15:52;;;;;;;;;;;;;;;8.50;55.84;100134.86;1686574;85;20202;-86
2022/11/01 09:18:19;;;;;;;;;;;;;;;8.53;54.49;100125.64;1686688;85;20193;-84
2022/11/01 09:20:53;;;;;;;;;;;;;;;8.60;54.57;100122.47;1686287;85;21130;-77
2022/11/01 09:23:20;;;;;;;;;;;;;;;8.73;53.87;100117.89;1686855;85;20195;-81
2022/11/01 09:25:47;;;;;;;;;;;;;;;8.87;54.16;100118.50;1686446;85;20140;-83
2022/11/01 09:28:13;;;;;;;;;;;;;;;9.05;53.86;100116.45;1686441;84;20289;-84
2022/11/01 09:30:40;;;;;;;;;;;;;;;9.19;53.16;100121.42;1686598;85;20298;-83
2022/11/01 09:33:07;;;;;;;;;;;;;;;9.27;52.25;100117.75;1686695;85;21059;-85
2022/11/01 09:35:34;;;;;;;;;;;;;;;9.29;52.04;100112.47;1686477;85;20277;-84
2022/11/01 09:38:02;;;;;;;;;;;;;;;9.35;51.79;100116.76;1686383;83;20238;-84
2022/11/01 09:40:36;;;;;;;;;;;;;;;9.44;52.60;100119.18;1686237;83;20190;-85
2022/11/01 09:43:03;;;;;;;;;;;;;;;9.57;52.09;100116.72;1686477;85;20206;-83
2022/11/01 09:45:30;;;;;;;;;;;;;;;9.72;50.40;100117.31;1686594;84;21314;-85
2022/11/01 09:47:57;;;;;;;;;;;;;;;9.77;50.79;100107.56;1688623;84;20430;-85
2022/11/01 09:50:33;;;;;;;;;;;;;;;9.88;51.40;100105.53;1696671;84;20430;-82
2022/11/01 09:53:00;;;;;;;;;;;;;;;10.04;50.41;100108.24;1696563;84;20135;-86
2022/11/01 09:55:47;;;;;;;;;;;;;;;10.14;50.64;100103.64;1696645;84;20209;-85
2022/11/01 09:58:27;;;;;;;;;;;;;;;10.29;49.80;100102.84;1696815;84;21162;-84
2022/11/01 10:01:15;;;;;;;;;;;;;;;10.40;49.49;100100.41;1696517;84;20226;-86
2022/11/01 10:03:45;;;;;;;;;;;;;;;10.53;48.87;100101.44;1696709;84;20205;-82
2022/11/01 10:06:15;;;;;;;;;;;;;;;10.68;48.39;100086.56;1696543;84;20150;-86
2022/11/01 10:09:03;;;;;;;;;;;;;;;10.81;47.71;100092.38;1696513;84;20244;-86
2022/11/01 10:11:49;;;;;;;;;;;;;;;10.96;47.34;100088.02;1696712;84;21484;-85
2022/11/01 10:14:39;;;;;;;;;;;;;;;11.12;46.79;100092.40;1629761;87;20485;-86
2022/11/01 10:17:14;;;;;;;;;;;;;;;11.28;47.41;100084.95;1696549;84;20210;-86
2022/11/01 10:19:42;;;;;;;;;;;;;;;11.43;45.53;100077.06;1695567;84;20583;-86
2022/11/01 10:22:12;;;;;;;;;;;;;;;11.49;45.14;100072.91;1696889;84;20234;-86
2022/11/01 10:24:50;;;;;;;;;;;;;;;11.58;45.25;100065.64;1696637;84;20955;-84
2022/11/01 10:27:23;;;;;;;;;;;;;;;11.67;44.34;100059.64;1696959;84;20171;-85
2022/11/01 10:30:05;;;;;;;;;;;;;;;11.75;43.90;100062.06;1696699;84;20150;-81
2022/11/01 10:32:35;;;;;;;;;;;;;;;11.76;43.99;100062.45;1696879;84;20206;-86
2022/11/01 10:35:22;;;;;;;;;;;;;;;11.83;44.40;100052.58;1696971;84;20242;-86
2022/11/01 10:37:58;;;;;;;;;;;;;;;11.96;42.74;100056.59;1697011;84;21112;-86
2022/11/01 10:40:31;;;;;;;;;;;;;;;12.04;42.34;100049.30;1696726;84;20229;-85
2022/11/01 10:42:57;;;;;;;;;;;;;;;12.19;42.36;100049.27;1696922;84;20323;-83
2022/11/01 10:45:25;;;;;;;;;;;;;;;12.35;42.63;100047.43;1696978;84;20258;-84
2022/11/01 10:47:55;;;;;;;;;;;;;;;12.49;42.08;100036.40;1696369;84;20269;-85
2022/11/01 10:50:25;;;;;;;;;;;;;;;12.64;41.82;100035.43;1686277;85;21586;-83
2022/11/01 10:52:59;;;;;;;;;;;;;;;12.72;41.13;100032.97;1686578;85;20677;-86
2022/11/01 10:55:28;;;;;;;;;;;;;;;12.57;39.95;100037.00;1686537;85;20195;-86
2022/11/01 10:57:58;;;;;;;;;;;;;;;12.31;39.83;100036.59;1686624;85;20244;-88
2022/11/01 11:00:25;;;;;;;;;;;;;;;12.12;41.44;100035.88;1686757;85;20238;-87
2022/11/01 11:02:54;;;;;;;;;;;;;;;12.18;42.32;100030.37;1686535;85;21183;-79
2022/11/01 11:05:21;;;;;;;;;;;;;;;12.33;41.07;100026.84;1686680;85;20623;-86
2022/11/01 11:07:47;;;;;;;;;;;;;;;12.37;39.64;100021.41;1686519;83;20206;-87
2022/11/01 11:10:22;;;;;;;;;;;;;;;12.40;38.86;100027.02;1686667;85;20218;-87
2022/11/01 11:12:51;;;;;;;;;;;;;;;12.47;39.54;100024.57;1686621;85;20223;-86
2022/11/01 11:15:48;;;;;;;;;;;;;;;12.62;39.00;100022.75;1686879;83;21118;-86
2022/11/01 11:18:23;;;;;;;;;;;;;;;12.81;39.83;100015.50;1685774;85;20222;-83
2022/11/01 11:20:51;;;;;;;;;;;;;;;13.17;39.32;100024.30;1686811;85;20249;-85
2022/11/01 11:23:19;;;;;;;;;;;;;;;13.36;39.07;100023.17;1686526;85;20196;-83
2022/11/01 11:25:45;;;;;;;;;;;;;;;13.58;39.01;100021.89;1686717;84;20147;-81
2022/11/01 11:28:21;;;;;;;;;;;;;;;13.91;37.68;100022.81;1662756;85;21123;-85
2022/11/01 11:30:47;;;;;;;;;;;;;;;14.18;35.39;100026.58;1686308;84;20155;-86
2022/11/01 11:33:15;;;;;;;;;;;;;;;14.31;35.29;100019.38;1686533;84;20434;-84
2022/11/01 11:35:53;;;;;;;;;;;;;;;14.62;36.00;100024.72;1686635;85;20143;-86
2022/11/01 11:38:22;;;;;;;;;;;;;;;15.09;34.27;100027.53;1686309;85;20203;-85
2022/11/01 11:40:49;;;;;;;;;;;;;;;15.32;33.90;100026.95;1660893;85;21212;-86
2022/11/01 11:43:39;;;;;;;;;;;;;;;15.46;32.66;100023.19;1686342;84;20218;-88
2022/11/01 11:46:05;;;;;;;;;;;;;;;15.57;32.92;100020.90;1685136;85;20587;-87
2022/11/01 11:48:32;;;;;;;;;;;;;;;16.17;33.42;100027.77;1688638;84;20664;-87
2022/11/01 11:51:01;;;;;;;;;;;;;;;17.00;30.63;100019.58;1696978;84;20257;-84
2022/11/01 11:53:28;;;;;;;;;;;;;;;17.49;30.43;100020.53;1696315;84;21836;-86
2022/11/01 11:56:00;;;;;;;;;;;;;;;18.15;28.57;100017.66;1696522;84;20323;-84
2022/11/01 11:58:41;;;;;;;;;;;;;;;18.61;28.62;100021.23;1697092;84;20202;-87
2022/11/01 12:01:12;;;;;;;;;;;;;;;19.35;28.40;100020.28;1696647;84;20265;-84
2022/11/01 12:03:49;;;;;;;;;;;;;;;20.03;26.80;100012.78;1696798;84;20213;-82
2022/11/01 12:06:19;;;;;;;;;;;;;;;20.48;26.54;100007.63;1697014;84;21884;-86
2022/11/01 12:08:50;;;;;;;;;;;;;;;21.12;25.78;100008.52;1696033;84;20214;-86
2022/11/01 12:11:16;;;;;;;;;;;;;;;21.81;25.66;100008.07;1696869;84;20213;-86
2022/11/01 12:13:46;;;;;;;;;;;;;;;22.63;25.31;100004.66;1696482;84;20234;-87
2022/11/01 12:16:23;;;;;;;;;;;;;;;23.06;23.76;100002.66;1693722;84;20924;-84
2022/11/01 12:18:53;;;;;;;;;;;;;;;23.44;23.39;100008.64;1696531;84;21087;-87
2022/11/01 12:21:37;;;;;;;;;;;;;;;23.65;22.36;100005.53;1696364;84;20166;-84
2022/11/01 12:24:26;;;;;;;;;;;;;;;23.51;22.27;100009.34;1696376;84;20210;-87
2022/11/01 12:26:54;;;;;;;;;;;;;;;23.55;22.32;100001.89;1696842;84;20317;-86
2022/11/01 12:29:39;;;;;;;;;;;;;;;23.90;22.20;100008.94;1696440;84;20199;-85
2022/11/01 12:32:13;;;;;;;;;;;;;;;24.25;20.53;100003.80;1682053;84;21269;-85
2022/11/01 12:34:40;;;;;;;;;;;;;;;23.85;20.62;100005.77;1696522;84;20159;-84
2022/11/01 12:37:22;;;;;;;;;;;;;;;23.59;20.87;100007.40;1664985;84;20352;-85
2022/11/01 12:40:05;;;;;;;;;;;;;;;23.59;21.26;100011.42;1696414;84;20249;-85
2022/11/01 12:42:50;;;;;;;;;;;;;;;23.89;21.21;100015.31;1696518;84;20429;-82
2022/11/01 12:45:23;;;;;;;;;;;;;;;23.91;21.07;100014.69;1696418;84;21099;-86
2022/11/01 12:47:53;;;;;;;;;;;;;;;23.63;21.06;100011.52;1696852;84;20229;-84
2022/11/01 12:50:22;;;;;;;;;;;;;;;23.70;21.60;100011.88;1696340;84;20221;-86
2022/11/01 12:52:55;;;;;;;;;;;;;;;23.85;21.15;100013.34;1696662;84;20203;-86
2022/11/01 12:55:37;;;;;;;;;;;;;;;23.89;21.17;100009.94;1696484;84;20166;-83
2022/11/01 12:58:05;;;;;;;;;;;;;;;23.81;21.04;100009.67;1696511;84;21564;-87
2022/11/01 13:00:35;;;;;;;;;;;;;;;23.50;21.09;100001.41;1696433;84;20230;-86